Time;durP1;ratioP1;P1;durP2;ratioP2;P2;SDS_P1;SDS_P2;PMS_P1;PMS_P2;Temp;Humidity;BMP_temperature;BMP_pressure;BME280_temperature;BME280_humidity;BME280_pressure;Samples;Min_cycle;Max_cycle;Signal;HPM_P1;HPM_P2
2021/07/03 00:01:16;;;;;;;;;;;;;;;26.91;60.77;100123.31;1773175;79;20183;-64
2021/07/03 00:03:42;;;;;;;;;;;;;;;26.91;60.73;100123.31;1771753;79;20218;-62
2021/07/03 00:06:08;;;;;;;;;;;;;;;26.90;60.72;100118.93;1775299;79;20146;-63
2021/07/03 00:08:34;;;;;;;;;;;;;;;26.88;60.69;100112.31;1737532;81;21067;-63
2021/07/03 00:11:01;;;;;;;;;;;;;;;26.87;60.68;100118.27;1711458;82;21560;-64
2021/07/03 00:13:27;;;;;;;;;;;;;;;26.83;60.69;100105.63;1735732;81;20144;-64
2021/07/03 00:15:53;;;;;;;;;;;;;;;26.80;60.67;100103.02;1736867;81;20146;-63
2021/07/03 00:18:19;;;;;;;;;;;;;;;26.77;60.66;100093.20;1692040;81;20758;-63
2021/07/03 00:20:45;;;;;;;;;;;;;;;26.74;60.69;100085.56;1764035;80;21174;-63
2021/07/03 00:23:11;;;;;;;;;;;;;;;26.72;60.68;100085.14;1764340;79;21675;-63
2021/07/03 00:25:37;;;;;;;;;;;;;;;26.68;60.70;100073.94;1762453;80;20207;-63
2021/07/03 00:28:04;;;;;;;;;;;;;;;26.65;60.72;100067.69;1764879;79;20165;-63
2021/07/03 00:30:31;;;;;;;;;;;;;;;26.62;60.73;100062.88;1765671;80;20153;-63
2021/07/03 00:32:56;;;;;;;;;;;;;;;26.58;60.75;100062.02;1768002;80;21164;-64
2021/07/03 00:35:22;;;;;;;;;;;;;;;26.54;60.77;100058.38;1768731;79;20219;-62
2021/07/03 00:37:48;;;;;;;;;;;;;;;26.51;60.80;100061.92;1760762;80;20273;-62
2021/07/03 00:40:14;;;;;;;;;;;;;;;26.48;60.82;100061.88;1748515;80;22235;-62
2021/07/03 00:42:40;;;;;;;;;;;;;;;26.46;60.85;100053.06;1755083;80;20155;-62
2021/07/03 00:45:07;;;;;;;;;;;;;;;26.44;60.87;100052.65;1758922;80;21138;-62
2021/07/03 00:47:33;;;;;;;;;;;;;;;26.42;60.90;100053.59;1753144;80;20261;-62
2021/07/03 00:49:59;;;;;;;;;;;;;;;26.39;60.93;100048.78;1755137;80;20251;-62
2021/07/03 00:52:25;;;;;;;;;;;;;;;26.37;60.94;100046.35;1768806;79;21663;-62
2021/07/03 00:54:51;;;;;;;;;;;;;;;26.35;60.98;100041.14;1745746;80;20209;-62
2021/07/03 00:57:17;;;;;;;;;;;;;;;26.33;61.00;100041.31;1736357;81;20998;-62
2021/07/03 00:59:45;;;;;;;;;;;;;;;26.31;61.02;100033.31;1703388;82;20244;-62
2021/07/03 01:02:12;;;;;;;;;;;;;;;26.30;61.03;100031.72;1720391;82;20267;-62
2021/07/03 01:04:38;;;;;;;;;;;;;;;26.28;61.07;100032.67;1712790;82;20241;-63
2021/07/03 01:07:05;;;;;;;;;;;;;;;26.29;61.06;100027.91;1681135;82;20433;-62
2021/07/03 01:09:31;;;;;;;;;;;;;;;26.29;61.10;100030.11;1705613;82;21079;-62
2021/07/03 01:11:57;;;;;;;;;;;;;;;26.30;61.15;100030.33;1766149;79;20181;-62
2021/07/03 01:14:23;;;;;;;;;;;;;;;26.33;61.20;100028.77;1785010;79;20283;-61
2021/07/03 01:16:49;;;;;;;;;;;;;;;26.35;61.24;100027.19;1766834;79;20177;-62
2021/07/03 01:19:15;;;;;;;;;;;;;;;26.38;61.29;100022.06;1749009;81;20139;-62
2021/07/03 01:21:47;;;;;;;;;;;;;;;26.42;61.29;100024.31;1746659;81;21071;-61
2021/07/03 01:24:13;;;;;;;;;;;;;;;26.45;61.30;100019.37;1745740;81;20167;-61
2021/07/03 01:26:45;;;;;;;;;;;;;;;26.50;61.30;100019.86;1733703;80;20213;-62
2021/07/03 01:29:11;;;;;;;;;;;;;;;26.53;61.27;100020.48;1739187;81;20294;-62
2021/07/03 01:31:41;;;;;;;;;;;;;;;26.55;61.26;100020.93;1734818;81;20186;-62
2021/07/03 01:34:08;;;;;;;;;;;;;;;26.58;61.21;100026.33;1733806;82;22496;-62
2021/07/03 01:36:34;;;;;;;;;;;;;;;26.58;61.18;100023.55;1732225;81;20214;-61
2021/07/03 01:38:59;;;;;;;;;;;;;;;26.60;61.14;100028.17;1732183;82;20136;-62
2021/07/03 01:41:26;;;;;;;;;;;;;;;26.59;61.08;100020.98;1734545;81;20187;-61
2021/07/03 01:43:52;;;;;;;;;;;;;;;26.59;61.03;100026.55;1726514;82;20191;-61
2021/07/03 01:46:17;;;;;;;;;;;;;;;26.58;61.01;100022.15;1733249;81;21091;-62
2021/07/03 01:48:43;;;;;;;;;;;;;;;26.55;60.98;100022.33;1736627;81;20150;-61
2021/07/03 01:51:09;;;;;;;;;;;;;;;26.54;60.94;100019.90;1734309;81;20273;-61
2021/07/03 01:53:35;;;;;;;;;;;;;;;26.52;60.95;100022.28;1735825;82;20667;-61
2021/07/03 01:56:01;;;;;;;;;;;;;;;26.48;60.92;100021.42;1735709;82;20256;-61
2021/07/03 01:58:27;;;;;;;;;;;;;;;26.46;60.94;100022.38;1726193;82;21101;-61
2021/07/03 02:00:55;;;;;;;;;;;;;;;26.43;60.93;100023.14;1730605;82;20116;-62
2021/07/03 02:03:25;;;;;;;;;;;;;;;26.41;60.96;100026.87;1734722;82;20266;-61
2021/07/03 02:05:51;;;;;;;;;;;;;;;26.38;60.97;100022.87;1734544;81;20135;-62
2021/07/03 02:08:17;;;;;;;;;;;;;;;26.35;60.98;100029.20;1734495;82;20166;-62
2021/07/03 02:10:43;;;;;;;;;;;;;;;26.32;61.01;100032.72;1731371;81;21119;-62
2021/07/03 02:13:08;;;;;;;;;;;;;;;26.30;61.02;100036.49;1734386;81;20181;-61
2021/07/03 02:15:35;;;;;;;;;;;;;;;26.28;61.05;100029.88;1720865;82;20156;-62
2021/07/03 02:18:01;;;;;;;;;;;;;;;26.24;61.08;100016.48;1717255;82;20175;-61
2021/07/03 02:20:27;;;;;;;;;;;;;;;26.22;61.09;100023.03;1678581;84;20166;-61
2021/07/03 02:22:54;;;;;;;;;;;;;;;26.21;61.12;100023.40;1717697;82;21137;-61
2021/07/03 02:25:20;;;;;;;;;;;;;;;26.19;61.15;100027.91;1688015;83;20165;-62
2021/07/03 02:27:46;;;;;;;;;;;;;;;26.16;61.19;100024.48;1754896;80;20427;-61
2021/07/03 02:30:14;;;;;;;;;;;;;;;26.15;61.18;100026.24;1755716;80;20707;-62
2021/07/03 02:32:40;;;;;;;;;;;;;;;26.14;61.22;100033.02;1756636;80;20396;-61
2021/07/03 02:35:07;;;;;;;;;;;;;;;26.12;61.24;100036.17;1750051;80;21106;-62
2021/07/03 02:37:33;;;;;;;;;;;;;;;26.10;61.27;100030.73;1731851;82;20477;-61
2021/07/03 02:40:00;;;;;;;;;;;;;;;26.09;61.29;100028.56;1750630;80;20547;-61
2021/07/03 02:42:26;;;;;;;;;;;;;;;26.08;61.30;100026.14;1749555;81;22120;-61
2021/07/03 02:44:52;;;;;;;;;;;;;;;26.06;61.35;100026.50;1753566;80;20166;-61
2021/07/03 02:47:17;;;;;;;;;;;;;;;26.08;61.32;100033.11;1750590;80;21382;-61
2021/07/03 02:49:43;;;;;;;;;;;;;;;26.09;61.35;100024.97;1750933;81;20743;-61
2021/07/03 02:52:09;;;;;;;;;;;;;;;26.11;61.40;100037.34;1746941;81;20763;-62
2021/07/03 02:54:35;;;;;;;;;;;;;;;26.13;61.46;100030.02;1748653;80;20548;-61
2021/07/03 02:57:01;;;;;;;;;;;;;;;26.14;61.51;100032.41;1750545;81;20193;-61
2021/07/03 02:59:27;;;;;;;;;;;;;;;26.20;61.54;100039.32;1750443;81;21118;-61
2021/07/03 03:01:53;;;;;;;;;;;;;;;26.24;61.55;100039.38;1748971;81;21369;-61
2021/07/03 03:04:21;;;;;;;;;;;;;;;26.28;61.57;100037.44;1749960;81;20138;-61
2021/07/03 03:06:47;;;;;;;;;;;;;;;26.32;61.56;100036.32;1753575;81;20179;-61
2021/07/03 03:09:16;;;;;;;;;;;;;;;26.35;61.54;100048.11;1747941;81;20232;-60
2021/07/03 03:11:42;;;;;;;;;;;;;;;26.39;61.55;100045.98;1750549;81;23292;-61
2021/07/03 03:14:08;;;;;;;;;;;;;;;26.41;61.53;100045.01;1748667;81;20222;-61
2021/07/03 03:16:34;;;;;;;;;;;;;;;26.43;61.49;100048.24;1749574;81;20252;-62
2021/07/03 03:19:00;;;;;;;;;;;;;;;26.44;61.41;100050.64;1722875;81;20414;-61
2021/07/03 03:21:26;;;;;;;;;;;;;;;26.45;61.37;100055.62;1756769;80;20203;-61
2021/07/03 03:23:52;;;;;;;;;;;;;;;26.45;61.34;100051.44;1762510;79;21031;-62
2021/07/03 03:26:18;;;;;;;;;;;;;;;26.44;61.29;100049.86;1766336;79;20192;-61
2021/07/03 03:28:44;;;;;;;;;;;;;;;26.43;61.26;100052.42;1767166;80;20159;-61
2021/07/03 03:31:10;;;;;;;;;;;;;;;26.41;61.23;100058.95;1727523;81;20211;-61
2021/07/03 03:33:36;;;;;;;;;;;;;;;26.40;61.22;100062.91;1727711;82;20169;-62
2021/07/03 03:36:03;;;;;;;;;;;;;;;26.39;61.22;100065.52;1725801;82;21094;-61
2021/07/03 03:38:29;;;;;;;;;;;;;;;26.36;61.21;100072.62;1714390;82;20090;-61
2021/07/03 03:40:55;;;;;;;;;;;;;;;26.32;61.21;100071.18;1721245;82;20171;-62
2021/07/03 03:43:21;;;;;;;;;;;;;;;26.29;61.23;100070.54;1719008;82;20169;-61
2021/07/03 03:45:47;;;;;;;;;;;;;;;26.28;61.23;100076.48;1721271;82;20221;-61
2021/07/03 03:48:12;;;;;;;;;;;;;;;26.25;61.23;100080.03;1725590;81;21287;-61
2021/07/03 03:50:38;;;;;;;;;;;;;;;26.22;61.24;100082.98;1712797;82;20191;-61
2021/07/03 03:53:04;;;;;;;;;;;;;;;26.20;61.29;100086.72;1718394;82;20273;-61
2021/07/03 03:55:30;;;;;;;;;;;;;;;26.18;61.31;100082.06;1713599;82;20156;-62
2021/07/03 03:57:56;;;;;;;;;;;;;;;26.16;61.31;100082.23;1720859;82;20231;-61
2021/07/03 04:00:22;;;;;;;;;;;;;;;26.13;61.36;100082.39;1724600;82;21322;-61
2021/07/03 04:02:48;;;;;;;;;;;;;;;26.12;61.38;100087.75;1724332;82;20205;-62
2021/07/03 04:05:14;;;;;;;;;;;;;;;26.10;61.39;100088.69;1721606;82;20200;-61
2021/07/03 04:07:40;;;;;;;;;;;;;;;26.09;61.42;100096.05;1712850;82;20375;-61
2021/07/03 04:10:07;;;;;;;;;;;;;;;26.06;61.46;100093.41;1717604;82;20214;-61
2021/07/03 04:12:33;;;;;;;;;;;;;;;26.06;61.48;100101.77;1717048;82;21122;-61
2021/07/03 04:14:59;;;;;;;;;;;;;;;26.05;61.50;100107.15;1725103;82;20134;-61
2021/07/03 04:17:26;;;;;;;;;;;;;;;26.04;61.51;100109.71;1719940;82;20233;-61
2021/07/03 04:19:52;;;;;;;;;;;;;;;26.04;61.54;100105.53;1740516;81;20140;-61
2021/07/03 04:22:18;;;;;;;;;;;;;;;26.04;61.56;100103.33;1732284;81;20713;-61
2021/07/03 04:24:44;;;;;;;;;;;;;;;26.03;61.56;100101.71;1726648;81;23299;-62
2021/07/03 04:27:11;;;;;;;;;;;;;;;26.04;61.56;100115.88;1727819;81;20155;-61
2021/07/03 04:29:37;;;;;;;;;;;;;;;26.05;61.56;100114.12;1755402;80;20657;-61
2021/07/03 04:32:04;;;;;;;;;;;;;;;26.07;61.61;100111.75;1755053;80;20179;-61
2021/07/03 04:34:30;;;;;;;;;;;;;;;26.10;61.64;100110.19;1764830;79;21209;-61
2021/07/03 04:36:56;;;;;;;;;;;;;;;26.13;61.68;100114.45;1757151;79;21987;-61
2021/07/03 04:39:22;;;;;;;;;;;;;;;26.17;61.71;100109.75;1730996;80;20255;-61
2021/07/03 04:41:48;;;;;;;;;;;;;;;26.23;61.74;100106.07;1724828;81;20288;-61
2021/07/03 04:44:14;;;;;;;;;;;;;;;26.27;61.73;100123.66;1726374;81;20160;-61
2021/07/03 04:46:40;;;;;;;;;;;;;;;26.30;61.70;100125.14;1756507;80;21105;-61
2021/07/03 04:49:06;;;;;;;;;;;;;;;26.34;61.71;100120.43;1756793;79;23217;-61
2021/07/03 04:51:32;;;;;;;;;;;;;;;26.40;61.67;100118.11;1763144;79;20204;-63
2021/07/03 04:53:58;;;;;;;;;;;;;;;26.43;61.65;100113.78;1758657;79;20160;-61
2021/07/03 04:56:24;;;;;;;;;;;;;;;26.45;61.60;100115.02;1762236;79;20343;-61
2021/07/03 04:58:50;;;;;;;;;;;;;;;26.48;61.53;100114.87;1766443;79;20769;-61
2021/07/03 05:01:16;;;;;;;;;;;;;;;26.50;61.49;100106.92;1763914;80;21665;-62
2021/07/03 05:03:42;;;;;;;;;;;;;;;26.50;61.44;100112.50;1766273;80;20181;-61
2021/07/03 05:06:08;;;;;;;;;;;;;;;26.50;61.36;100112.50;1731003;80;20219;-61
2021/07/03 05:08:35;;;;;;;;;;;;;;;26.50;61.34;100114.70;1763680;80;20408;-61
2021/07/03 05:11:01;;;;;;;;;;;;;;;26.50;61.27;100120.28;1718996;81;20156;-62
2021/07/03 05:13:27;;;;;;;;;;;;;;;26.48;61.23;100118.44;1756971;80;23233;-61
2021/07/03 05:15:53;;;;;;;;;;;;;;;26.47;61.19;100120.23;1756420;80;20141;-61
2021/07/03 05:18:19;;;;;;;;;;;;;;;26.45;61.17;100121.98;1766562;80;20215;-61
2021/07/03 05:20:45;;;;;;;;;;;;;;;26.42;61.15;100121.94;1771488;80;20425;-61
2021/07/03 05:23:11;;;;;;;;;;;;;;;26.39;61.16;100123.50;1768525;79;20236;-61
2021/07/03 05:25:40;;;;;;;;;;;;;;;26.37;61.13;100130.02;1771698;79;21062;-61
2021/07/03 05:28:05;;;;;;;;;;;;;;;26.33;61.15;100134.15;1767252;80;20427;-61
2021/07/03 05:30:31;;;;;;;;;;;;;;;26.32;61.16;100142.30;1772352;79;20222;-61
2021/07/03 05:32:57;;;;;;;;;;;;;;;26.29;61.16;100138.05;1772615;79;20254;-61
2021/07/03 05:35:23;;;;;;;;;;;;;;;26.27;61.20;100143.19;1770390;80;20129;-61
2021/07/03 05:37:49;;;;;;;;;;;;;;;26.24;61.22;100143.35;1768548;79;23380;-61
2021/07/03 05:40:17;;;;;;;;;;;;;;;26.21;61.22;100138.53;1773506;79;20213;-61
2021/07/03 05:42:43;;;;;;;;;;;;;;;26.19;61.25;100142.23;1767460;80;20422;-62
2021/07/03 05:45:09;;;;;;;;;;;;;;;26.17;61.26;100143.79;1762318;79;20203;-62
2021/07/03 05:47:36;;;;;;;;;;;;;;;26.15;61.30;100137.18;1769702;79;20151;-61
2021/07/03 05:50:03;;;;;;;;;;;;;;;26.13;61.31;100140.94;1731848;81;20979;-61
2021/07/03 05:52:29;;;;;;;;;;;;;;;26.12;61.33;100138.52;1720304;81;20418;-61
2021/07/03 05:54:56;;;;;;;;;;;;;;;26.11;61.34;100139.10;1764020;80;20891;-61
2021/07/03 05:57:24;;;;;;;;;;;;;;;26.09;61.34;100138.68;1763517;79;20174;-61
2021/07/03 05:59:50;;;;;;;;;;;;;;;26.09;61.37;100136.48;1766154;79;20236;-61
2021/07/03 06:02:16;;;;;;;;;;;;;;;26.07;61.39;100135.44;1761487;79;21085;-61
2021/07/03 06:04:41;;;;;;;;;;;;;;;26.06;61.41;100142.19;1767469;79;20171;-61
2021/07/03 06:07:07;;;;;;;;;;;;;;;26.05;61.42;100148.16;1765854;79;20219;-61
2021/07/03 06:09:33;;;;;;;;;;;;;;;26.04;61.43;100155.70;1766165;79;20254;-61
2021/07/03 06:11:59;;;;;;;;;;;;;;;26.03;61.45;100159.66;1769241;79;20765;-61
2021/07/03 06:14:25;;;;;;;;;;;;;;;26.03;61.45;100167.22;1764909;79;21070;-61
2021/07/03 06:16:51;;;;;;;;;;;;;;;26.03;61.46;100163.84;1740045;81;20250;-61
2021/07/03 06:19:20;;;;;;;;;;;;;;;26.05;61.45;100159.30;1770074;79;20189;-61
2021/07/03 06:21:45;;;;;;;;;;;;;;;26.06;61.50;100153.34;1774234;80;20168;-61
2021/07/03 06:24:13;;;;;;;;;;;;;;;26.08;61.54;100157.97;1744697;80;20155;-61
2021/07/03 06:26:39;;;;;;;;;;;;;;;26.12;61.58;100156.64;1762210;80;20904;-62
2021/07/03 06:29:05;;;;;;;;;;;;;;;26.16;61.61;100153.33;1768992;79;20143;-61
2021/07/03 06:31:31;;;;;;;;;;;;;;;26.20;61.63;100160.61;1765120;79;20958;-61
2021/07/03 06:33:57;;;;;;;;;;;;;;;26.23;61.66;100157.06;1770008;79;20994;-61
2021/07/03 06:36:23;;;;;;;;;;;;;;;26.28;61.64;100172.10;1767493;80;20187;-61
2021/07/03 06:38:49;;;;;;;;;;;;;;;26.33;61.66;100170.99;1770182;80;21118;-61
2021/07/03 06:41:14;;;;;;;;;;;;;;;26.36;61.63;100168.27;1772178;79;20199;-62
2021/07/03 06:43:40;;;;;;;;;;;;;;;26.39;61.59;100171.50;1766065;79;20169;-62
2021/07/03 06:46:06;;;;;;;;;;;;;;;26.41;61.56;100169.13;1765810;79;20215;-61
2021/07/03 06:48:32;;;;;;;;;;;;;;;26.43;61.52;100168.18;1764091;79;20179;-62
2021/07/03 06:50:58;;;;;;;;;;;;;;;26.44;61.46;100163.60;1766800;80;21070;-61
2021/07/03 06:53:24;;;;;;;;;;;;;;;26.44;61.50;100155.23;1766267;79;20183;-61
2021/07/03 06:55:50;;;;;;;;;;;;;;;26.44;61.55;100158.64;1769404;79;20185;-61
2021/07/03 06:58:15;;;;;;;;;;;;;;;26.43;61.56;100160.62;1767835;79;20148;-61
2021/07/03 07:00:41;;;;;;;;;;;;;;;26.41;61.58;100170.52;1765001;80;20686;-62
2021/07/03 07:03:07;;;;;;;;;;;;;;;26.38;61.57;100158.14;1762213;80;23260;-61
2021/07/03 07:05:33;;;;;;;;;;;;;;;26.36;61.58;100154.31;1762589;79;20169;-62
2021/07/03 07:07:59;;;;;;;;;;;;;;;26.35;61.57;100151.30;1768420;79;20155;-62
2021/07/03 07:10:25;;;;;;;;;;;;;;;26.33;61.56;100152.28;1761904;79;20242;-62
2021/07/03 07:12:51;;;;;;;;;;;;;;;26.31;61.56;100150.44;1768793;79;20182;-62
2021/07/03 07:15:17;;;;;;;;;;;;;;;26.30;61.57;100160.59;1765394;79;21128;-62
2021/07/03 07:17:43;;;;;;;;;;;;;;;26.28;61.57;100155.95;1761350;79;20251;-61
2021/07/03 07:20:10;;;;;;;;;;;;;;;26.26;61.56;100156.94;1742309;80;20296;-62
2021/07/03 07:22:36;;;;;;;;;;;;;;;26.25;61.60;100158.11;1726841;81;21224;-61
2021/07/03 07:25:03;;;;;;;;;;;;;;;26.22;61.62;100157.46;1733358;81;20170;-62
2021/07/03 07:27:29;;;;;;;;;;;;;;;26.21;61.63;100165.59;1730431;81;21329;-61
2021/07/03 07:29:55;;;;;;;;;;;;;;;26.18;61.64;100157.34;1731370;81;20107;-61
2021/07/03 07:32:21;;;;;;;;;;;;;;;26.18;61.67;100162.14;1733768;81;20128;-62
2021/07/03 07:34:47;;;;;;;;;;;;;;;26.15;61.69;100155.30;1733029;81;20144;-62
2021/07/03 07:37:13;;;;;;;;;;;;;;;26.15;61.71;100160.06;1732061;81;20162;-62
2021/07/03 07:39:39;;;;;;;;;;;;;;;26.13;61.72;100155.47;1732957;81;20986;-62
2021/07/03 07:42:05;;;;;;;;;;;;;;;26.12;61.62;100152.45;1730177;81;20265;-61
2021/07/03 07:44:31;;;;;;;;;;;;;;;26.08;61.47;100152.98;1732888;81;20217;-61
2021/07/03 07:46:57;;;;;;;;;;;;;;;26.01;61.35;100152.27;1728346;81;20204;-61
2021/07/03 07:49:23;;;;;;;;;;;;;;;25.96;61.29;100148.39;1730967;81;21033;-62
2021/07/03 07:51:49;;;;;;;;;;;;;;;25.95;61.30;100153.74;1730380;81;21791;-63
2021/07/03 07:54:15;;;;;;;;;;;;;;;25.93;61.31;100155.30;1729134;81;20266;-62
2021/07/03 07:56:41;;;;;;;;;;;;;;;25.94;61.37;100160.48;1733352;81;20261;-61
2021/07/03 07:59:06;;;;;;;;;;;;;;;25.93;61.41;100152.52;1732789;81;20291;-61
2021/07/03 08:01:32;;;;;;;;;;;;;;;25.93;61.46;100154.69;1733718;81;20201;-62
2021/07/03 08:03:58;;;;;;;;;;;;;;;25.92;61.48;100157.27;1730944;81;21239;-62
2021/07/03 08:06:24;;;;;;;;;;;;;;;25.93;61.51;100160.26;1733203;81;20214;-61
2021/07/03 08:08:50;;;;;;;;;;;;;;;25.92;61.53;100147.52;1729997;81;20759;-62
2021/07/03 08:11:16;;;;;;;;;;;;;;;25.94;61.53;100145.16;1729739;81;20870;-63
2021/07/03 08:13:42;;;;;;;;;;;;;;;25.97;61.56;100146.41;1731894;81;20229;-62
2021/07/03 08:16:08;;;;;;;;;;;;;;;26.00;61.61;100147.87;1730524;81;20986;-63
2021/07/03 08:18:34;;;;;;;;;;;;;;;26.03;61.64;100142.13;1730965;81;20799;-64
2021/07/03 08:20:59;;;;;;;;;;;;;;;26.07;61.68;100141.60;1763640;79;20297;-65
2021/07/03 08:23:25;;;;;;;;;;;;;;;26.10;61.70;100140.27;1765821;80;20227;-62
2021/07/03 08:25:51;;;;;;;;;;;;;;;26.14;61.55;100138.97;1760750;80;20267;-65
2021/07/03 08:28:17;;;;;;;;;;;;;;;26.15;61.43;100130.80;1764012;79;21181;-65
2021/07/03 08:30:44;;;;;;;;;;;;;;;26.17;61.35;100129.27;1760180;80;20244;-65
2021/07/03 08:33:10;;;;;;;;;;;;;;;26.17;61.21;100125.08;1768008;79;20454;-64
2021/07/03 08:35:36;;;;;;;;;;;;;;;26.16;61.04;100129.04;1763319;79;20665;-64
2021/07/03 08:38:02;;;;;;;;;;;;;;;26.14;60.87;100118.83;1763069;80;20236;-63
2021/07/03 08:40:30;;;;;;;;;;;;;;;26.13;60.75;100117.83;1767556;79;21085;-65
2021/07/03 08:42:56;;;;;;;;;;;;;;;26.12;60.58;100130.16;1762952;79;20279;-64
2021/07/03 08:45:21;;;;;;;;;;;;;;;26.11;60.44;100118.78;1763779;79;20304;-63
2021/07/03 08:47:47;;;;;;;;;;;;;;;26.08;60.26;100122.31;1759760;80;20907;-65
2021/07/03 08:50:15;;;;;;;;;;;;;;;26.07;60.14;100126.27;1760941;79;20238;-64
2021/07/03 08:52:41;;;;;;;;;;;;;;;26.05;60.02;100122.48;1768809;79;21044;-63
2021/07/03 08:55:13;;;;;;;;;;;;;;;26.04;59.96;100120.05;1766074;79;20235;-63
2021/07/03 08:57:50;;;;;;;;;;;;;;;26.02;59.87;100120.41;1740694;81;20164;-64
2021/07/03 09:00:33;;;;;;;;;;;;;;;25.99;59.79;100128.13;1733782;81;20156;-64
2021/07/03 09:03:00;;;;;;;;;;;;;;;25.97;59.71;100129.08;1702458;82;20251;-62
2021/07/03 09:05:30;;;;;;;;;;;;;;;25.93;59.70;100132.39;1718402;82;21314;-63
2021/07/03 09:08:01;;;;;;;;;;;;;;;25.86;59.67;100137.25;1711047;82;20162;-62
2021/07/03 09:10:27;;;;;;;;;;;;;;;25.75;59.41;100139.04;1676034;83;20420;-63
2021/07/03 09:12:54;;;;;;;;;;;;;;;25.62;59.20;100136.19;1721262;81;20100;-64
2021/07/03 09:15:22;;;;;;;;;;;;;;;25.51;59.11;100123.98;1725696;82;20218;-63
2021/07/03 09:17:53;;;;;;;;;;;;;;;25.48;59.07;100133.08;1769376;80;21149;-63
2021/07/03 09:20:25;;;;;;;;;;;;;;;25.45;58.99;100133.23;1746685;79;20400;-64
2021/07/03 09:22:51;;;;;;;;;;;;;;;25.43;59.03;100128.61;1729070;81;20144;-63
2021/07/03 09:25:20;;;;;;;;;;;;;;;25.44;58.90;100129.41;1727548;81;20270;-63
2021/07/03 09:27:47;;;;;;;;;;;;;;;25.42;58.79;100132.55;1726910;82;20167;-62
2021/07/03 09:30:15;;;;;;;;;;;;;;;25.42;58.66;100127.56;1727238;81;21173;-62
2021/07/03 09:32:50;;;;;;;;;;;;;;;25.42;58.62;100124.78;1729388;81;20132;-63
2021/07/03 09:35:16;;;;;;;;;;;;;;;25.44;58.54;100123.27;1732367;81;20242;-65
2021/07/03 09:37:42;;;;;;;;;;;;;;;25.44;58.44;100124.66;1727002;81;20187;-62
2021/07/03 09:40:09;;;;;;;;;;;;;;;25.46;58.33;100122.91;1731812;81;20720;-64
2021/07/03 09:42:38;;;;;;;;;;;;;;;25.48;58.19;100125.53;1728541;81;20999;-62
2021/07/03 09:45:06;;;;;;;;;;;;;;;25.49;57.96;100133.30;1728307;81;20246;-63
2021/07/03 09:47:32;;;;;;;;;;;;;;;25.53;57.76;100123.62;1723068;81;20168;-64
2021/07/03 09:50:06;;;;;;;;;;;;;;;25.52;57.42;100122.00;1727463;81;20688;-64
2021/07/03 09:52:34;;;;;;;;;;;;;;;25.52;57.29;100123.40;1732371;81;20187;-63
2021/07/03 09:55:02;;;;;;;;;;;;;;;25.54;57.17;100124.69;1657337;85;21084;-63
2021/07/03 09:57:28;;;;;;;;;;;;;;;25.57;57.06;100116.98;1693838;83;20173;-62
2021/07/03 09:59:54;;;;;;;;;;;;;;;25.56;56.88;100105.61;1668240;84;20250;-65
2021/07/03 10:02:20;;;;;;;;;;;;;;;25.57;56.76;100102.25;1675160;84;20898;-64
2021/07/03 10:04:46;;;;;;;;;;;;;;;25.56;56.67;100096.45;1676473;84;20187;-65
2021/07/03 10:07:22;;;;;;;;;;;;;;;25.55;56.55;100093.44;1671895;84;21068;-69
2021/07/03 10:09:56;;;;;;;;;;;;;;;25.52;56.45;100091.37;1686824;84;20591;-64
2021/07/03 10:12:25;;;;;;;;;;;;;;;25.48;56.41;100092.69;1717768;81;20188;-64
2021/07/03 10:14:52;;;;;;;;;;;;;;;25.46;56.32;100097.23;1732996;81;20210;-66
2021/07/03 10:17:28;;;;;;;;;;;;;;;25.45;56.28;100092.05;1727189;81;20243;-64
2021/07/03 10:19:54;;;;;;;;;;;;;;;25.43;56.18;100099.36;1733778;80;21124;-65
2021/07/03 10:22:28;;;;;;;;;;;;;;;25.42;56.11;100099.14;1747290;80;20209;-63
2021/07/03 10:24:55;;;;;;;;;;;;;;;25.40;56.03;100090.36;1731713;81;20212;-62
2021/07/03 10:27:26;;;;;;;;;;;;;;;25.40;55.94;100088.97;1769373;79;20180;-63
2021/07/03 10:29:53;;;;;;;;;;;;;;;25.39;55.88;100090.13;1744752;80;20186;-63
2021/07/03 10:32:20;;;;;;;;;;;;;;;25.38;55.82;100082.95;1761097;80;21130;-62
2021/07/03 10:34:46;;;;;;;;;;;;;;;25.38;55.78;100088.52;1756439;80;20359;-62
2021/07/03 10:37:15;;;;;;;;;;;;;;;25.37;55.70;100091.69;1765186;80;20190;-62
2021/07/03 10:39:41;;;;;;;;;;;;;;;25.36;55.65;100092.27;1715982;82;20187;-64
2021/07/03 10:42:08;;;;;;;;;;;;;;;25.35;55.65;100089.26;1722378;82;20165;-61
2021/07/03 10:44:41;;;;;;;;;;;;;;;25.39;55.65;100084.56;1752829;80;22089;-61
2021/07/03 10:47:10;;;;;;;;;;;;;;;25.44;55.70;100089.03;1750208;80;20428;-61
2021/07/03 10:49:38;;;;;;;;;;;;;;;25.53;55.59;100085.47;1767939;80;20222;-62
2021/07/03 10:52:12;;;;;;;;;;;;;;;25.59;55.59;100090.94;1723132;82;20497;-62
2021/07/03 10:54:38;;;;;;;;;;;;;;;25.64;55.36;100086.47;1720511;82;20402;-63
2021/07/03 10:57:04;;;;;;;;;;;;;;;25.69;55.17;100084.78;1739587;80;21156;-61
2021/07/03 10:59:36;;;;;;;;;;;;;;;25.72;55.03;100086.01;1721764;82;20425;-62
2021/07/03 11:02:12;;;;;;;;;;;;;;;25.75;54.89;100079.72;1699802;83;20184;-61
2021/07/03 11:04:53;;;;;;;;;;;;;;;25.74;54.78;100078.10;1765856;81;20166;-61
2021/07/03 11:07:26;;;;;;;;;;;;;;;25.75;54.70;100079.13;1764727;80;20208;-62
2021/07/03 11:09:56;;;;;;;;;;;;;;;25.79;54.59;100079.20;1771886;80;21103;-61
2021/07/03 11:12:23;;;;;;;;;;;;;;;25.79;54.41;100070.84;1773686;80;20198;-61
2021/07/03 11:14:51;;;;;;;;;;;;;;;25.82;54.36;100075.66;1771863;80;20433;-62
2021/07/03 11:17:18;;;;;;;;;;;;;;;25.86;54.23;100075.94;1774352;79;20416;-62
2021/07/03 11:19:47;;;;;;;;;;;;;;;25.91;54.02;100073.44;1766341;80;20270;-63
2021/07/03 11:22:12;;;;;;;;;;;;;;;25.92;53.78;100073.66;1755031;80;21190;-61
2021/07/03 11:24:45;;;;;;;;;;;;;;;25.93;53.72;100073.86;1746481;82;20094;-63
2021/07/03 11:27:08;;;;;;;;;;;;;;;25.95;53.59;100071.52;1714257;82;20251;-63
2021/07/03 11:29:34;;;;;;;;;;;;;;;25.93;53.43;100065.50;1715419;83;20171;-63
2021/07/03 11:32:07;;;;;;;;;;;;;;;25.93;53.46;100054.34;1775046;80;20189;-63
2021/07/03 11:34:34;;;;;;;;;;;;;;;25.93;53.30;100053.77;1772289;80;21151;-63
2021/07/03 11:37:02;;;;;;;;;;;;;;;25.92;53.19;100052.77;1759519;80;20177;-63
2021/07/03 11:39:28;;;;;;;;;;;;;;;25.96;53.15;100058.39;1764465;80;20212;-66
2021/07/03 11:42:03;;;;;;;;;;;;;;;25.98;53.11;100055.44;1759355;80;20227;-61
2021/07/03 11:44:28;;;;;;;;;;;;;;;25.99;52.97;100063.22;1762511;80;20470;-61
2021/07/03 11:46:54;;;;;;;;;;;;;;;25.98;52.89;100066.59;1764827;80;21089;-62
2021/07/03 11:49:21;;;;;;;;;;;;;;;25.93;52.85;100071.07;1762906;79;20969;-61
2021/07/03 11:52:01;;;;;;;;;;;;;;;25.92;52.83;100069.48;1726344;81;20144;-62
2021/07/03 11:54:27;;;;;;;;;;;;;;;25.89;52.81;100077.17;1729854;81;20182;-63
2021/07/03 11:56:57;;;;;;;;;;;;;;;25.89;52.78;100072.41;1730439;82;20739;-62
2021/07/03 11:59:23;;;;;;;;;;;;;;;25.90;52.75;100069.84;1742673;81;21163;-62
2021/07/03 12:01:50;;;;;;;;;;;;;;;25.91;52.74;100073.44;1710009;82;20121;-62
2021/07/03 12:04:16;;;;;;;;;;;;;;;25.89;52.68;100071.59;1697479;82;20119;-62
2021/07/03 12:06:42;;;;;;;;;;;;;;;25.90;52.58;100069.03;1713911;82;20772;-61
2021/07/03 12:09:13;;;;;;;;;;;;;;;25.85;52.52;100056.21;1768268;81;20167;-61
2021/07/03 12:11:39;;;;;;;;;;;;;;;25.75;52.45;100057.43;1737630;81;21180;-62
2021/07/03 12:14:13;;;;;;;;;;;;;;;25.60;52.61;100054.14;1727040;82;20151;-61
2021/07/03 12:16:39;;;;;;;;;;;;;;;25.48;52.82;100049.52;1729413;82;20169;-62
2021/07/03 12:19:05;;;;;;;;;;;;;;;25.40;52.88;100057.52;1710110;82;20457;-62
2021/07/03 12:21:34;;;;;;;;;;;;;;;25.31;52.96;100052.77;1716739;82;20141;-62
2021/07/03 12:24:07;;;;;;;;;;;;;;;25.20;52.96;100055.35;1713414;82;21179;-62
2021/07/03 12:26:42;;;;;;;;;;;;;;;25.09;53.11;100053.50;1708153;82;20168;-62
2021/07/03 12:29:26;;;;;;;;;;;;;;;25.00;53.26;100046.17;1747365;80;20144;-63
2021/07/03 12:31:46;;;;;;;;;;;;;;;24.90;53.44;100037.61;1749992;81;20149;-63
2021/07/03 12:34:15;;;;;;;;;;;;;;;24.82;53.52;100038.02;1765999;81;20186;-63